»·PEaware :: N78JW KLAX-KSAN

N78JW :: KLAX-KSAN

FLIGHT INFORMATION

Flight Status: Arrived
Operator: Privately registered:
United States
More flights under this callsign
Pilot: Jon W. (9193)
Aircraft: PIPER PA-24 COMMANCHE
(PA24)
More flights by this aircraft type
Origin: KLAX Los Angeles Intl
United States
Destination: KSAN San Diego Intl-Lindbergh
United States
More flights between these airports :: More routes between these airports
Route: +
File this flight plan on PilotEdge
Remarks: CAT11
Altitude:
(Current/Filed)
5,500ft
Speed:
(Current/Filed)
0kts
Departed: 04-Oct-17 09:20 PM
Arrived: 04-Oct-17 10:11 PM
Distance/Time
Traveled:
95nm/0:51
Distance/Time
To Go:
Arrived

Flight Plot

Page will automatically refresh every two minutes.


Map Options




Map Legend


Flown Route
Filed Route
Departure Airport
Arrival Airport
Navaid (VOR, NDB)
Fix

Horizontal Profiles

Position Reports

Time Latitude Longitude Heading Altitude Ground
Speed
04-Oct-17 21:13 33.941532 -118.394155 269 129ft 0kts
04-Oct-17 21:14 33.941532 -118.394165 269 129ft 0kts
04-Oct-17 21:15 33.941532 -118.394175 269 129ft 0kts
04-Oct-17 21:16 33.941418 -118.394274 172 129ft 0kts
04-Oct-17 21:17 33.941407 -118.394272 172 129ft 0kts
04-Oct-17 21:18 33.940321 -118.392846 81 129ft 7kts
04-Oct-17 21:19 33.939745 -118.391055 82 129ft 8kts
04-Oct-17 21:20 33.940118 -118.387330 82 129ft 12kts
04-Oct-17 21:21 33.940551 -118.383035 83 129ft 11kts
04-Oct-17 21:22 33.940678 -118.380553 119 129ft 0kts
04-Oct-17 21:23 33.940239 -118.380148 161 129ft 7kts
04-Oct-17 21:24 33.938222 -118.394928 263 331ft 104kts
04-Oct-17 21:25 33.937612 -118.431081 269 1383ft 112kts
04-Oct-17 21:26 33.937398 -118.467332 259 2303ft 109kts
04-Oct-17 21:27 33.909547 -118.478461 184 2978ft 120kts
04-Oct-17 21:28 33.871273 -118.482777 183 3011ft 149kts
04-Oct-17 21:29 33.833356 -118.485964 182 3756ft 113kts
04-Oct-17 21:30 33.803413 -118.485151 153 4646ft 115kts
04-Oct-17 21:31 33.777778 -118.462809 144 5437ft 122kts
04-Oct-17 21:32 33.745572 -118.433360 145 5479ft 159kts
04-Oct-17 21:33 33.709451 -118.399921 144 5475ft 166kts
04-Oct-17 21:34 33.667769 -118.387099 191 5475ft 160kts
04-Oct-17 21:35 33.623393 -118.393398 192 5474ft 159kts
04-Oct-17 21:36 33.579091 -118.399043 188 5474ft 160kts
04-Oct-17 21:37 33.534367 -118.403862 188 5475ft 161kts
04-Oct-17 21:38 33.489594 -118.408181 186 5475ft 161kts
04-Oct-17 21:39 33.444668 -118.412564 188 5474ft 161kts
04-Oct-17 21:40 33.399900 -118.417004 187 5474ft 161kts
04-Oct-17 21:41 33.368534 -118.387434 111 5485ft 164kts
04-Oct-17 21:42 33.350773 -118.336172 111 5476ft 167kts
04-Oct-17 21:43 33.334479 -118.284040 108 5471ft 168kts
04-Oct-17 21:44 33.317966 -118.231872 110 5473ft 168kts
04-Oct-17 21:45 33.302180 -118.179148 107 5475ft 168kts
04-Oct-17 21:46 33.286174 -118.126772 110 5474ft 168kts
04-Oct-17 21:47 33.269685 -118.074363 108 5474ft 168kts
04-Oct-17 21:48 33.253978 -118.021729 109 5474ft 168kts
04-Oct-17 21:49 33.237209 -117.969497 109 5475ft 168kts
04-Oct-17 21:50 33.221480 -117.916691 108 5474ft 168kts
04-Oct-17 21:51 33.204851 -117.864482 110 5461ft 168kts
04-Oct-17 21:52 33.187860 -117.809443 107 4805ft 178kts
04-Oct-17 21:53 33.170890 -117.754753 109 4143ft 171kts
04-Oct-17 21:54 33.157273 -117.710946 108 3629ft 167kts
04-Oct-17 21:55 33.138890 -117.650942 111 2951ft 159kts
04-Oct-17 21:56 33.123332 -117.602846 110 2621ft 152kts
04-Oct-17 21:57 33.111188 -117.563362 110 2382ft 151kts
04-Oct-17 21:58 33.093779 -117.508447 110 2074ft 151kts
04-Oct-17 21:59 33.079146 -117.461244 110 1779ft 151kts
04-Oct-17 22:00 33.066708 -117.422113 110 1559ft 151kts
04-Oct-17 22:01 33.052611 -117.377061 110 1573ft 141kts
04-Oct-17 22:02 33.038472 -117.333355 120 1568ft 141kts
04-Oct-17 22:03 33.003741 -117.313951 159 1570ft 137kts
04-Oct-17 22:04 32.968147 -117.298564 158 1566ft 134kts
04-Oct-17 22:05 32.934615 -117.283812 159 1945ft 132kts
04-Oct-17 22:06 32.900094 -117.267740 158 1932ft 132kts
04-Oct-17 22:07 32.866013 -117.251753 158 1932ft 131kts
04-Oct-17 22:08 32.830757 -117.236627 163 1605ft 140kts
04-Oct-17 22:09 32.794816 -117.220403 151 1133ft 133kts
04-Oct-17 22:10 32.771978 -117.194453 114 1161ft 112kts
04-Oct-17 22:11 32.761584 -117.160789 110 1298ft 103kts
04-Oct-17 22:12 32.747028 -117.136935 191 1079ft 100kts
04-Oct-17 22:13 32.726092 -117.147884 261 617ft 79kts
04-Oct-17 22:14 32.729598 -117.173654 287 172ft 76kts
04-Oct-17 22:15 32.733183 -117.188002 310 18ft 13kts
04-Oct-17 22:16 32.734341 -117.187930 19 18ft 4kts
04-Oct-17 22:17 32.734859 -117.187747 11 18ft 0kts
04-Oct-17 22:18 32.734861 -117.187746 11 18ft 0kts
04-Oct-17 22:19 32.734861 -117.187746 11 18ft 0kts
04-Oct-17 22:20 32.734861 -117.187746 11 18ft 0kts
04-Oct-17 22:21 32.734861 -117.187746 11 18ft 0kts
04-Oct-17 22:22 32.734861 -117.187746 11 18ft 0kts
04-Oct-17 22:23 32.734861 -117.187746 11 18ft 0kts
04-Oct-17 22:24 32.734861 -117.187746 11 18ft 0kts
04-Oct-17 22:25 32.734861 -117.187746 11 18ft 0kts
04-Oct-17 22:26 32.734861 -117.187746 11 18ft 0kts
04-Oct-17 22:27 32.734861 -117.187746 11 18ft 0kts
04-Oct-17 22:28 32.734861 -117.187746 11 18ft 0kts

Navigation Log

Ident Type
1. KLAX Airport
2. KSAN Airport